createdAt,value
2022-11-06T00:02:35.884Z,10.40
2022-11-06T00:08:35.144Z,10.10
2022-11-06T00:14:29.799Z,10.30
2022-11-06T00:20:23.136Z,9.90
2022-11-06T00:26:18.513Z,9.80
2022-11-06T00:32:13.163Z,10.10
2022-11-06T00:38:06.170Z,10.00
2022-11-06T00:44:01.665Z,9.90
2022-11-06T00:49:56.312Z,9.80
2022-11-06T00:55:49.611Z,9.90
2022-11-06T01:01:44.668Z,9.80
2022-11-06T01:07:39.753Z,9.90
2022-11-06T01:13:32.677Z,9.90
2022-11-06T01:19:26.262Z,9.70
2022-11-06T01:25:21.001Z,9.90
2022-11-06T01:31:18.181Z,9.80
2022-11-06T01:37:14.494Z,9.60
2022-11-06T01:43:15.539Z,9.60
2022-11-06T01:49:12.344Z,9.30
2022-11-06T01:55:11.359Z,9.40
2022-11-06T02:01:06.601Z,9.60
2022-11-06T02:07:01.491Z,9.90
2022-11-06T02:13:02.884Z,9.70
2022-11-06T02:19:35.043Z,9.60
2022-11-06T02:25:41.802Z,9.80
2022-11-06T02:31:38.858Z,9.50
2022-11-06T02:37:36.606Z,9.50
2022-11-06T02:43:33.509Z,9.80
2022-11-06T02:49:34.350Z,9.80
2022-11-06T02:55:32.838Z,9.50
2022-11-06T03:01:30.930Z,9.70
2022-11-06T03:07:32.689Z,9.70
2022-11-06T03:13:34.005Z,9.60
2022-11-06T03:19:30.869Z,9.80
2022-11-06T03:25:30.537Z,9.60
2022-11-06T03:31:31.265Z,9.60
2022-11-06T03:37:29.769Z,10.00
2022-11-06T03:43:29.555Z,10.00
2022-11-06T03:49:28.532Z,9.90
2022-11-06T03:55:26.293Z,10.00
2022-11-06T04:01:25.382Z,9.80
2022-11-06T04:07:23.882Z,9.90
2022-11-06T04:13:35.605Z,9.90
2022-11-06T04:19:30.264Z,9.90
2022-11-06T04:25:53.112Z,10.00
2022-11-06T04:31:56.041Z,9.90
2022-11-06T04:37:58.820Z,9.90
2022-11-06T04:43:55.381Z,9.80
2022-11-06T04:49:51.940Z,9.80
2022-11-06T04:55:52.369Z,10.00
2022-11-06T05:01:46.152Z,10.00
2022-11-06T05:07:39.215Z,9.90
2022-11-06T05:13:33.547Z,10.00
2022-11-06T05:19:26.945Z,9.70
2022-11-06T05:25:19.947Z,9.70
2022-11-06T05:31:14.659Z,10.00
2022-11-06T05:37:07.610Z,9.90
2022-11-06T05:43:00.939Z,9.90
2022-11-06T05:48:55.205Z,9.90
2022-11-06T05:54:48.182Z,9.90
2022-11-06T06:00:41.540Z,10.10
2022-11-06T06:06:37.061Z,10.00
2022-11-06T06:12:30.731Z,10.20
2022-11-06T06:18:23.588Z,10.10
2022-11-06T06:24:18.437Z,10.10
2022-11-06T06:30:13.183Z,10.20
2022-11-06T06:36:07.613Z,10.20
2022-11-06T06:42:01.842Z,10.20
2022-11-06T06:47:55.146Z,10.10
2022-11-06T06:53:48.544Z,10.30
2022-11-06T06:59:43.213Z,10.20
2022-11-06T07:05:36.753Z,10.30
2022-11-06T07:11:29.682Z,10.20
2022-11-06T07:17:23.910Z,10.30
2022-11-06T07:23:17.228Z,10.40
2022-11-06T07:29:10.733Z,10.30
2022-11-06T07:35:05.437Z,10.30
2022-11-06T07:41:03.649Z,10.30
2022-11-06T07:46:56.970Z,10.30
2022-11-06T07:52:51.678Z,10.10
2022-11-06T07:58:44.995Z,10.30
2022-11-06T08:04:38.501Z,10.20
2022-11-06T08:10:33.897Z,10.20
2022-11-06T08:16:27.035Z,10.30
2022-11-06T08:22:20.427Z,10.30
2022-11-06T08:28:14.997Z,10.40
2022-11-06T08:34:09.288Z,10.40
2022-11-06T08:40:02.660Z,10.40
2022-11-06T08:45:57.279Z,10.60
2022-11-06T08:51:50.656Z,10.40
2022-11-06T08:57:43.990Z,10.50
2022-11-06T09:03:38.702Z,10.60
2022-11-06T09:09:33.310Z,10.60
2022-11-06T09:15:27.000Z,10.70
2022-11-06T09:21:29.474Z,10.60
2022-11-06T09:27:22.747Z,10.50
2022-11-06T09:33:16.539Z,10.70
2022-11-06T09:39:11.387Z,10.80
2022-11-06T09:45:12.297Z,11.00
2022-11-06T09:51:16.376Z,11.00
2022-11-06T09:57:19.639Z,11.00
2022-11-06T10:03:19.931Z,11.10
2022-11-06T10:09:13.183Z,11.10
2022-11-06T10:15:21.132Z,11.20
2022-11-06T10:21:24.979Z,11.20
2022-11-06T10:27:20.136Z,11.30
2022-11-06T10:33:33.889Z,11.40
2022-11-06T10:39:33.139Z,11.40
2022-11-06T10:45:28.919Z,11.50
2022-11-06T10:51:36.840Z,11.60
2022-11-06T10:57:38.388Z,11.60
2022-11-06T11:03:33.615Z,11.60
2022-11-06T11:09:34.045Z,11.70
2022-11-06T11:15:28.802Z,11.80
2022-11-06T11:21:25.492Z,11.90
2022-11-06T11:27:20.182Z,12.20
2022-11-06T11:33:14.463Z,12.60
2022-11-06T11:39:07.841Z,13.30
2022-11-06T11:45:18.720Z,13.60
2022-11-06T11:51:26.095Z,13.80
2022-11-06T11:57:22.720Z,13.80
2022-11-06T12:03:17.567Z,14.00
2022-11-06T12:09:14.976Z,14.20
2022-11-06T12:15:20.399Z,14.10
2022-11-06T12:21:22.442Z,14.20
2022-11-06T12:27:18.772Z,14.60
2022-11-06T12:33:15.578Z,14.90
2022-11-06T12:39:16.885Z,15.20
2022-11-06T12:45:13.454Z,15.30
2022-11-06T12:51:13.267Z,15.30
2022-11-06T12:57:16.545Z,15.20
2022-11-06T13:03:26.732Z,15.10
2022-11-06T13:09:25.512Z,15.10
2022-11-06T13:15:28.527Z,14.90
2022-11-06T13:21:26.828Z,15.10
2022-11-06T13:27:27.723Z,15.40
2022-11-06T13:33:26.782Z,15.50
2022-11-06T13:39:25.549Z,15.30
2022-11-06T13:45:20.083Z,14.90
2022-11-06T13:51:21.493Z,14.90
2022-11-06T13:57:42.924Z,15.10
2022-11-06T14:03:58.210Z,15.10
2022-11-06T14:09:53.499Z,14.70
2022-11-06T14:15:48.370Z,14.40
2022-11-06T14:21:51.964Z,14.20
2022-11-06T14:28:07.857Z,13.80
2022-11-06T14:34:03.373Z,13.80
2022-11-06T14:40:07.137Z,13.80
2022-11-06T14:46:05.166Z,13.80
2022-11-06T14:52:01.270Z,13.60
2022-11-06T14:57:56.446Z,13.70
2022-11-06T15:03:54.216Z,13.60
2022-11-06T15:09:49.064Z,13.30
2022-11-06T15:15:44.323Z,13.00
2022-11-06T15:21:44.540Z,13.10
2022-11-06T15:27:43.645Z,12.90
2022-11-06T15:33:51.545Z,12.80
2022-11-06T15:40:00.202Z,12.60
2022-11-06T15:46:22.371Z,12.60
2022-11-06T15:52:18.257Z,12.70
2022-11-06T15:58:30.585Z,12.70
2022-11-06T16:04:26.603Z,12.70
2022-11-06T16:10:22.149Z,12.60
2022-11-06T16:22:35.608Z,12.40
2022-11-06T16:28:30.094Z,12.20
2022-11-06T16:34:35.762Z,12.10
2022-11-06T16:40:52.959Z,12.10
2022-11-06T16:47:11.664Z,12.10
2022-11-06T16:53:05.136Z,12.10
2022-11-06T16:59:05.854Z,11.90
2022-11-06T17:05:17.264Z,11.80
2022-11-06T17:11:22.007Z,11.90
2022-11-06T17:17:27.416Z,11.80
2022-11-06T17:23:21.167Z,11.60
2022-11-06T17:29:20.991Z,11.60
2022-11-06T17:35:17.330Z,11.70
2022-11-06T17:41:10.767Z,11.70
2022-11-06T17:47:04.144Z,11.50
2022-11-06T17:52:59.563Z,11.50
2022-11-06T17:58:53.151Z,11.70
2022-11-06T18:04:46.685Z,11.60
2022-11-06T18:10:41.862Z,11.70
2022-11-06T18:16:42.255Z,11.60
2022-11-06T18:22:36.920Z,11.90
2022-11-06T18:28:31.367Z,11.90
2022-11-06T18:34:24.723Z,11.90
2022-11-06T18:40:18.311Z,11.70
2022-11-06T18:46:14.484Z,11.80
2022-11-06T18:52:08.017Z,11.70
2022-11-06T18:58:01.674Z,11.70
2022-11-06T19:03:56.799Z,11.40
2022-11-06T19:09:49.948Z,11.50
2022-11-06T19:15:43.354Z,11.20
2022-11-06T19:21:38.228Z,11.40
2022-11-06T19:27:31.586Z,11.40
2022-11-06T19:33:25.100Z,11.40
2022-11-06T19:39:19.986Z,11.30
2022-11-06T19:45:13.638Z,11.40
2022-11-06T19:51:10.837Z,11.40
2022-11-06T19:57:28.168Z,11.40
2022-11-06T20:03:19.733Z,11.20
2022-11-06T20:09:13.205Z,11.00
2022-11-06T20:15:08.973Z,11.00
2022-11-06T20:21:03.041Z,11.00
2022-11-06T20:26:56.453Z,10.80
2022-11-06T20:32:51.252Z,10.90
2022-11-06T20:38:44.844Z,10.80
2022-11-06T20:44:38.351Z,10.90
2022-11-06T20:50:33.198Z,11.00
2022-11-06T20:56:27.289Z,11.00
2022-11-06T21:02:21.011Z,11.00
2022-11-06T21:08:15.712Z,10.90
2022-11-06T21:14:09.123Z,10.90
2022-11-06T21:20:02.107Z,11.00
2022-11-06T21:25:57.002Z,11.00
2022-11-06T21:31:50.904Z,10.80
2022-11-06T21:37:44.391Z,11.10
2022-11-06T21:43:39.585Z,10.90
2022-11-06T21:49:32.958Z,11.20
2022-11-06T21:55:43.922Z,11.20
2022-11-06T22:01:40.210Z,10.80
2022-11-06T22:07:33.789Z,10.60
2022-11-06T22:13:27.186Z,10.40
2022-11-06T22:19:21.937Z,10.20
2022-11-06T22:25:15.634Z,10.20
2022-11-06T22:31:09.311Z,10.60
2022-11-06T22:37:04.107Z,10.40
2022-11-06T22:42:57.477Z,10.40
2022-11-06T22:48:52.191Z,10.10
2022-11-06T22:54:47.004Z,10.20
2022-11-06T23:00:40.548Z,10.20
2022-11-06T23:06:34.417Z,10.00
2022-11-06T23:12:29.267Z,10.10
2022-11-06T23:18:22.681Z,10.20
2022-11-06T23:24:16.312Z,10.20
2022-11-06T23:30:13.479Z,10.20
2022-11-06T23:36:07.587Z,10.10
2022-11-06T23:42:00.942Z,10.10
2022-11-06T23:47:55.714Z,10.20
2022-11-06T23:53:49.113Z,10.40
2022-11-06T23:59:42.787Z,10.40
